Kezdőlap
METAR-TAF:

METAR-TAF

Repülőterek :

Hartford, Connecticut, Amerikai Egyesült Államok

földrajzi szélesség: 41-44-06N, földrajzi hosszúság: 072-39-06W, magasság: 5 m

Jelenlegi meteorológiai megfigyelések

A jelentés 37 perccel ezelõtt készült, 12:53 UTC
Észak-északkeleti szél 10 kt
Hőmérséklet 21°C
Páratartalom 78%
Légköri nyomás 1016 hPa
Látótávolság: 16.1 km
Szakadozott felhőzet 1300 lábon

METAR: KHFD 281253Z 02010KT 10SM BKN013 21/17 A2999 RMK AO2 SLP156 T02110167

Idő: 09:30 (13:30 UTC)


TAF: hiányzik

Meteorológiai megfigyelések és előrejelzések több, mint 4000 repülőtéren (METAR és TAF jelentéseket).

A térképen piros és sárga pontok jelzik az elérhető meteorológiai állomásokat.

Mozgassa az egeret a pont fölött, hogy megjelenjen az állomás neve.

Azután kattintson az időjárási megfigyelések és előrejelzések megtekintéséhez.

A térkép megváltoztatása: kattintson a fekete keresztel jelölt zöld gombra ráközelítéshez, a vonallal jelölt zöld gombra távolításhoz, vagy a zöld nyilakra a szomszédos térképek eléréséhez.


METAR-TAF: